Detroit Metropolitan Wayne County Airport
KDTW : now visible

Airfield :











YOU CAN JOIN US ON...

 
LOGIN :

Register | Disclaimer

   EN    FR    IT 

 









Legend :    VFR   Marginal VFR   IFR   Intensive IFR   Very Intensive IFR
Visi :
Ceiling :
>= 8 km
>= 3000ft
5 to 8 km
1000 to 3000 ft
1500m to 5 km
500 to 1000 ft
800 to 1500m
200 to 500 ft
< 800m
< 200 ft
Symbols :   Thunderstorms  Fog  Heavy snow  Heavy precipitations  Wind > 20 kt






- Airport Elevation : 645 ft
- IATA code : DTW


KDTW - Detroit Metropolitan Wayne County

CURRENT METAR :
  • 030853Z 20003KT 8SM SCT070 BKN110 OVC200 19/18 A2994 RMK AO2 SLP136 T01890178 55003 $

EXPIRED METARs :
  • 030753Z 21003KT 8SM FEW075 BKN120 BKN220 18/17 A2994 RMK AO2 SLP135 T01830172 $
  • 030653Z 21003KT 9SM SCT130 BKN250 19/18 A2995 RMK AO2 SLP138 T01890178 $
  • 030553Z 21003KT 8SM SCT100 SCT250 18/17 A2995 RMK AO2 SLP139 T01830172 $

TAF KDTW
Valid from the 03 at 08:00 until the 04 at 12:00 UTC


030753Z 0308/0412 23005KT P6SM SCT015 BKN120
FM031300 23005KT P6SM SCT035
FM031700 26007KT P6SM BKN045
PROB30 0318/0323 3SM -TSRA OVC030CB
FM032300 33010KT P6SM BKN035
FM040100 36007KT P6SM BKN040
KZOB FIR / North America



MET'MAP, your aeronautical weather chart ! - Copyright ORBIFLY December 2007 - Disclaimer

ORBIFLY MET'MAP TEAM :

Programming & Development : Alexandra Zaïnal
Concept & original design : Baudouin d'Aumeries
Assistance for programming : Marc-Olivier Méhu
Technical & hardware support : Manuel Goepfert

Contact : metmap@orbifly.com




SOURCES & CREDITS :

   NOAA       Earth
Advisory